sensor_id;sensor_type;location;lat;lon;timestamp;P1;durP1;ratioP1;P2;durP2;ratioP2
43327;SDS011;28923;45.412;10.852;2022-09-25T00:02:07;0.40;;;0.40;;
43327;SDS011;28923;45.412;10.852;2022-09-25T00:04:32;0.60;;;0.40;;
43327;SDS011;28923;45.412;10.852;2022-09-25T00:06:58;0.57;;;0.47;;
43327;SDS011;28923;45.412;10.852;2022-09-25T00:09:23;0.80;;;0.50;;
43327;SDS011;28923;45.412;10.852;2022-09-25T00:11:48;0.50;;;0.50;;
43327;SDS011;28923;45.412;10.852;2022-09-25T00:14:14;0.85;;;0.50;;
43327;SDS011;28923;45.412;10.852;2022-09-25T00:16:40;0.30;;;0.30;;
43327;SDS011;28923;45.412;10.852;2022-09-25T00:19:05;0.45;;;0.45;;
43327;SDS011;28923;45.412;10.852;2022-09-25T00:21:49;0.38;;;0.38;;
43327;SDS011;28923;45.412;10.852;2022-09-25T00:24:17;0.77;;;0.40;;
43327;SDS011;28923;45.412;10.852;2022-09-25T00:26:42;1.00;;;0.70;;
43327;SDS011;28923;45.412;10.852;2022-09-25T00:29:08;0.40;;;0.40;;
43327;SDS011;28923;45.412;10.852;2022-09-25T00:31:34;0.40;;;0.40;;
43327;SDS011;28923;45.412;10.852;2022-09-25T00:34:01;0.35;;;0.35;;
43327;SDS011;28923;45.412;10.852;2022-09-25T00:36:26;0.47;;;0.47;;
43327;SDS011;28923;45.412;10.852;2022-09-25T00:38:52;0.68;;;0.40;;
43327;SDS011;28923;45.412;10.852;2022-09-25T00:41:19;0.38;;;0.38;;
43327;SDS011;28923;45.412;10.852;2022-09-25T00:43:45;0.50;;;0.40;;
43327;SDS011;28923;45.412;10.852;2022-09-25T00:46:17;0.40;;;0.40;;
43327;SDS011;28923;45.412;10.852;2022-09-25T00:48:50;0.47;;;0.47;;
43327;SDS011;28923;45.412;10.852;2022-09-25T00:51:18;0.75;;;0.30;;
43327;SDS011;28923;45.412;10.852;2022-09-25T00:53:45;0.30;;;0.30;;
43327;SDS011;28923;45.412;10.852;2022-09-25T00:56:11;0.55;;;0.50;;
43327;SDS011;28923;45.412;10.852;2022-09-25T00:58:37;0.60;;;0.50;;
43327;SDS011;28923;45.412;10.852;2022-09-25T01:01:03;0.40;;;0.40;;
43327;SDS011;28923;45.412;10.852;2022-09-25T01:03:29;0.50;;;0.50;;
43327;SDS011;28923;45.412;10.852;2022-09-25T01:05:55;0.60;;;0.60;;
43327;SDS011;28923;45.412;10.852;2022-09-25T01:08:24;0.40;;;0.40;;
43327;SDS011;28923;45.412;10.852;2022-09-25T01:10:50;0.60;;;0.43;;
43327;SDS011;28923;45.412;10.852;2022-09-25T01:13:16;0.40;;;0.40;;
43327;SDS011;28923;45.412;10.852;2022-09-25T01:31:31;0.40;;;0.40;;
43327;SDS011;28923;45.412;10.852;2022-09-25T01:34:04;0.40;;;0.40;;
43327;SDS011;28923;45.412;10.852;2022-09-25T01:36:37;0.50;;;0.50;;
43327;SDS011;28923;45.412;10.852;2022-09-25T01:41:42;0.57;;;0.40;;
43327;SDS011;28923;45.412;10.852;2022-09-25T01:44:28;0.38;;;0.38;;
43327;SDS011;28923;45.412;10.852;2022-09-25T01:46:55;0.40;;;0.40;;
43327;SDS011;28923;45.412;10.852;2022-09-25T01:49:23;1.92;;;0.40;;
43327;SDS011;28923;45.412;10.852;2022-09-25T01:51:50;0.60;;;0.50;;
43327;SDS011;28923;45.412;10.852;2022-09-25T01:54:18;0.35;;;0.32;;
43327;SDS011;28923;45.412;10.852;2022-09-25T02:02:14;1.17;;;0.40;;
43327;SDS011;28923;45.412;10.852;2022-09-25T02:04:44;0.30;;;0.30;;
43327;SDS011;28923;45.412;10.852;2022-09-25T02:07:12;0.47;;;0.40;;
43327;SDS011;28923;45.412;10.852;2022-09-25T02:09:44;0.63;;;0.40;;
43327;SDS011;28923;45.412;10.852;2022-09-25T02:12:18;0.30;;;0.30;;
43327;SDS011;28923;45.412;10.852;2022-09-25T02:14:48;0.52;;;0.30;;
43327;SDS011;28923;45.412;10.852;2022-09-25T02:17:17;0.40;;;0.40;;
43327;SDS011;28923;45.412;10.852;2022-09-25T02:20:02;0.50;;;0.40;;
43327;SDS011;28923;45.412;10.852;2022-09-25T02:22:48;0.30;;;0.30;;
43327;SDS011;28923;45.412;10.852;2022-09-25T02:25:17;0.40;;;0.30;;
43327;SDS011;28923;45.412;10.852;2022-09-25T02:27:44;0.40;;;0.40;;
43327;SDS011;28923;45.412;10.852;2022-09-25T02:30:10;0.30;;;0.30;;
43327;SDS011;28923;45.412;10.852;2022-09-25T02:32:35;0.30;;;0.30;;
43327;SDS011;28923;45.412;10.852;2022-09-25T02:35:01;0.40;;;0.40;;
43327;SDS011;28923;45.412;10.852;2022-09-25T02:37:26;0.30;;;0.30;;
43327;SDS011;28923;45.412;10.852;2022-09-25T02:39:53;0.30;;;0.30;;
43327;SDS011;28923;45.412;10.852;2022-09-25T02:45:11;0.57;;;0.55;;
43327;SDS011;28923;45.412;10.852;2022-09-25T02:55:39;0.40;;;0.40;;
43327;SDS011;28923;45.412;10.852;2022-09-25T03:00:35;0.40;;;0.40;;
43327;SDS011;28923;45.412;10.852;2022-09-25T03:03:02;0.30;;;0.30;;
43327;SDS011;28923;45.412;10.852;2022-09-25T03:05:30;0.20;;;0.20;;
43327;SDS011;28923;45.412;10.852;2022-09-25T03:07:55;0.43;;;0.40;;
43327;SDS011;28923;45.412;10.852;2022-09-25T03:10:39;0.30;;;0.30;;
43327;SDS011;28923;45.412;10.852;2022-09-25T03:13:13;0.45;;;0.40;;
43327;SDS011;28923;45.412;10.852;2022-09-25T03:15:39;0.30;;;0.30;;
43327;SDS011;28923;45.412;10.852;2022-09-25T03:18:06;0.93;;;0.30;;
43327;SDS011;28923;45.412;10.852;2022-09-25T03:20:31;0.30;;;0.30;;
43327;SDS011;28923;45.412;10.852;2022-09-25T03:22:56;1.35;;;0.38;;
43327;SDS011;28923;45.412;10.852;2022-09-25T03:25:22;0.55;;;0.40;;
43327;SDS011;28923;45.412;10.852;2022-09-25T03:27:47;0.40;;;0.40;;
43327;SDS011;28923;45.412;10.852;2022-09-25T03:30:12;0.30;;;0.30;;
43327;SDS011;28923;45.412;10.852;2022-09-25T03:32:38;0.43;;;0.40;;
43327;SDS011;28923;45.412;10.852;2022-09-25T03:35:06;1.17;;;0.50;;
43327;SDS011;28923;45.412;10.852;2022-09-25T03:37:31;0.35;;;0.35;;
43327;SDS011;28923;45.412;10.852;2022-09-25T03:39:57;0.70;;;0.50;;
43327;SDS011;28923;45.412;10.852;2022-09-25T03:42:23;0.40;;;0.40;;
43327;SDS011;28923;45.412;10.852;2022-09-25T03:44:51;0.35;;;0.30;;
43327;SDS011;28923;45.412;10.852;2022-09-25T03:47:17;0.80;;;0.40;;
43327;SDS011;28923;45.412;10.852;2022-09-25T03:49:42;0.40;;;0.40;;
43327;SDS011;28923;45.412;10.852;2022-09-25T03:52:07;0.25;;;0.25;;
43327;SDS011;28923;45.412;10.852;2022-09-25T03:54:37;0.30;;;0.30;;
43327;SDS011;28923;45.412;10.852;2022-09-25T03:57:02;0.30;;;0.30;;
43327;SDS011;28923;45.412;10.852;2022-09-25T03:59:27;0.55;;;0.50;;
43327;SDS011;28923;45.412;10.852;2022-09-25T04:01:53;0.22;;;0.22;;
43327;SDS011;28923;45.412;10.852;2022-09-25T04:04:19;0.40;;;0.40;;
43327;SDS011;28923;45.412;10.852;2022-09-25T04:06:44;0.38;;;0.38;;
43327;SDS011;28923;45.412;10.852;2022-09-25T04:09:10;0.30;;;0.30;;
43327;SDS011;28923;45.412;10.852;2022-09-25T04:11:35;0.68;;;0.43;;
43327;SDS011;28923;45.412;10.852;2022-09-25T04:14:03;0.40;;;0.40;;
43327;SDS011;28923;45.412;10.852;2022-09-25T04:16:28;0.47;;;0.47;;
43327;SDS011;28923;45.412;10.852;2022-09-25T04:18:54;0.55;;;0.30;;
43327;SDS011;28923;45.412;10.852;2022-09-25T04:21:19;0.40;;;0.40;;
43327;SDS011;28923;45.412;10.852;2022-09-25T04:23:45;2.83;;;0.50;;
43327;SDS011;28923;45.412;10.852;2022-09-25T04:26:30;0.80;;;0.40;;
43327;SDS011;28923;45.412;10.852;2022-09-25T04:28:56;0.50;;;0.50;;
43327;SDS011;28923;45.412;10.852;2022-09-25T04:31:21;0.82;;;0.40;;
43327;SDS011;28923;45.412;10.852;2022-09-25T04:33:46;0.30;;;0.30;;
43327;SDS011;28923;45.412;10.852;2022-09-25T04:36:12;0.95;;;0.40;;
43327;SDS011;28923;45.412;10.852;2022-09-25T04:38:38;0.50;;;0.50;;
43327;SDS011;28923;45.412;10.852;2022-09-25T04:41:03;0.40;;;0.40;;
43327;SDS011;28923;45.412;10.852;2022-09-25T04:43:30;0.40;;;0.40;;
43327;SDS011;28923;45.412;10.852;2022-09-25T04:46:05;0.60;;;0.50;;
43327;SDS011;28923;45.412;10.852;2022-09-25T04:48:32;0.40;;;0.40;;
43327;SDS011;28923;45.412;10.852;2022-09-25T04:50:58;0.40;;;0.40;;
43327;SDS011;28923;45.412;10.852;2022-09-25T04:53:27;0.50;;;0.45;;
43327;SDS011;28923;45.412;10.852;2022-09-25T04:55:58;0.82;;;0.60;;
43327;SDS011;28923;45.412;10.852;2022-09-25T04:58:24;0.40;;;0.40;;
43327;SDS011;28923;45.412;10.852;2022-09-25T05:00:49;0.57;;;0.43;;
43327;SDS011;28923;45.412;10.852;2022-09-25T05:03:15;0.63;;;0.60;;
43327;SDS011;28923;45.412;10.852;2022-09-25T05:05:40;0.47;;;0.47;;
43327;SDS011;28923;45.412;10.852;2022-09-25T05:08:05;0.65;;;0.50;;
43327;SDS011;28923;45.412;10.852;2022-09-25T05:10:32;0.47;;;0.40;;
43327;SDS011;28923;45.412;10.852;2022-09-25T05:13:00;0.85;;;0.50;;
43327;SDS011;28923;45.412;10.852;2022-09-25T05:15:26;0.50;;;0.50;;
43327;SDS011;28923;45.412;10.852;2022-09-25T05:18:26;0.40;;;0.40;;
43327;SDS011;28923;45.412;10.852;2022-09-25T05:20:44;0.43;;;0.43;;
43327;SDS011;28923;45.412;10.852;2022-09-25T05:23:10;0.80;;;0.52;;
43327;SDS011;28923;45.412;10.852;2022-09-25T05:25:36;0.45;;;0.45;;
43327;SDS011;28923;45.412;10.852;2022-09-25T05:28:01;0.50;;;0.50;;
43327;SDS011;28923;45.412;10.852;2022-09-25T05:30:28;0.80;;;0.70;;
43327;SDS011;28923;45.412;10.852;2022-09-25T05:32:54;0.50;;;0.50;;
43327;SDS011;28923;45.412;10.852;2022-09-25T05:35:22;0.52;;;0.50;;
43327;SDS011;28923;45.412;10.852;2022-09-25T05:37:48;0.63;;;0.50;;
43327;SDS011;28923;45.412;10.852;2022-09-25T05:40:13;0.50;;;0.50;;
43327;SDS011;28923;45.412;10.852;2022-09-25T05:42:42;0.60;;;0.60;;
43327;SDS011;28923;45.412;10.852;2022-09-25T05:45:09;0.85;;;0.45;;
43327;SDS011;28923;45.412;10.852;2022-09-25T05:47:34;6.60;;;1.20;;
43327;SDS011;28923;45.412;10.852;2022-09-25T05:50:00;2.33;;;0.80;;
43327;SDS011;28923;45.412;10.852;2022-09-25T05:52:25;2.75;;;0.70;;
43327;SDS011;28923;45.412;10.852;2022-09-25T05:54:50;0.90;;;0.70;;
43327;SDS011;28923;45.412;10.852;2022-09-25T05:57:16;1.05;;;0.55;;
43327;SDS011;28923;45.412;10.852;2022-09-25T05:59:41;0.77;;;0.63;;
43327;SDS011;28923;45.412;10.852;2022-09-25T06:02:08;2.88;;;0.70;;
43327;SDS011;28923;45.412;10.852;2022-09-25T06:04:34;1.40;;;0.90;;
43327;SDS011;28923;45.412;10.852;2022-09-25T06:06:59;4.15;;;0.90;;
43327;SDS011;28923;45.412;10.852;2022-09-25T06:09:26;5.82;;;1.08;;
43327;SDS011;28923;45.412;10.852;2022-09-25T06:11:52;4.53;;;0.80;;
43327;SDS011;28923;45.412;10.852;2022-09-25T06:14:17;1.25;;;0.80;;
43327;SDS011;28923;45.412;10.852;2022-09-25T06:16:46;3.13;;;0.77;;
43327;SDS011;28923;45.412;10.852;2022-09-25T06:19:11;1.25;;;0.82;;
43327;SDS011;28923;45.412;10.852;2022-09-25T06:21:37;2.97;;;1.00;;
43327;SDS011;28923;45.412;10.852;2022-09-25T06:24:02;2.47;;;0.80;;
43327;SDS011;28923;45.412;10.852;2022-09-25T06:26:27;2.13;;;0.93;;
43327;SDS011;28923;45.412;10.852;2022-09-25T06:28:53;1.05;;;0.80;;
43327;SDS011;28923;45.412;10.852;2022-09-25T06:31:19;2.75;;;0.80;;
43327;SDS011;28923;45.412;10.852;2022-09-25T06:33:44;1.95;;;0.98;;
43327;SDS011;28923;45.412;10.852;2022-09-25T06:36:11;1.13;;;0.82;;
43327;SDS011;28923;45.412;10.852;2022-09-25T06:38:36;3.60;;;1.00;;
43327;SDS011;28923;45.412;10.852;2022-09-25T06:41:01;3.10;;;0.82;;
43327;SDS011;28923;45.412;10.852;2022-09-25T06:43:27;3.13;;;0.82;;
43327;SDS011;28923;45.412;10.852;2022-09-25T06:45:52;0.80;;;0.80;;
43327;SDS011;28923;45.412;10.852;2022-09-25T06:48:18;2.72;;;1.10;;
43327;SDS011;28923;45.412;10.852;2022-09-25T06:50:52;1.13;;;1.02;;
43327;SDS011;28923;45.412;10.852;2022-09-25T06:53:18;1.02;;;0.85;;
43327;SDS011;28923;45.412;10.852;2022-09-25T06:55:44;0.98;;;0.75;;
43327;SDS011;28923;45.412;10.852;2022-09-25T06:58:11;1.05;;;0.70;;
43327;SDS011;28923;45.412;10.852;2022-09-25T07:00:37;2.42;;;0.70;;
43327;SDS011;28923;45.412;10.852;2022-09-25T07:03:02;2.80;;;0.90;;
43327;SDS011;28923;45.412;10.852;2022-09-25T07:05:46;1.75;;;0.95;;
43327;SDS011;28923;45.412;10.852;2022-09-25T07:08:13;5.80;;;0.90;;
43327;SDS011;28923;45.412;10.852;2022-09-25T07:10:49;2.70;;;1.00;;
43327;SDS011;28923;45.412;10.852;2022-09-25T07:13:16;2.55;;;0.73;;
43327;SDS011;28923;45.412;10.852;2022-09-25T07:15:41;9.80;;;1.73;;
43327;SDS011;28923;45.412;10.852;2022-09-25T07:18:07;6.53;;;1.27;;
43327;SDS011;28923;45.412;10.852;2022-09-25T07:20:32;6.53;;;1.10;;
43327;SDS011;28923;45.412;10.852;2022-09-25T07:22:58;3.28;;;1.00;;
43327;SDS011;28923;45.412;10.852;2022-09-25T07:25:28;3.22;;;1.10;;
43327;SDS011;28923;45.412;10.852;2022-09-25T07:27:53;8.88;;;1.63;;
43327;SDS011;28923;45.412;10.852;2022-09-25T07:30:19;3.03;;;1.05;;
43327;SDS011;28923;45.412;10.852;2022-09-25T07:32:45;2.70;;;1.15;;
43327;SDS011;28923;45.412;10.852;2022-09-25T07:35:10;3.15;;;1.08;;
43327;SDS011;28923;45.412;10.852;2022-09-25T07:37:36;5.45;;;1.27;;
43327;SDS011;28923;45.412;10.852;2022-09-25T07:40:03;3.30;;;1.10;;
43327;SDS011;28923;45.412;10.852;2022-09-25T07:42:29;6.50;;;1.23;;
43327;SDS011;28923;45.412;10.852;2022-09-25T07:44:54;2.65;;;1.13;;
43327;SDS011;28923;45.412;10.852;2022-09-25T07:47:20;2.78;;;1.10;;
43327;SDS011;28923;45.412;10.852;2022-09-25T07:49:46;2.55;;;1.25;;
43327;SDS011;28923;45.412;10.852;2022-09-25T07:52:12;4.82;;;1.13;;
43327;SDS011;28923;45.412;10.852;2022-09-25T07:54:38;7.90;;;1.10;;
43327;SDS011;28923;45.412;10.852;2022-09-25T07:57:03;5.50;;;1.05;;
43327;SDS011;28923;45.412;10.852;2022-09-25T07:59:29;6.90;;;1.20;;
43327;SDS011;28923;45.412;10.852;2022-09-25T08:01:54;4.38;;;0.98;;
43327;SDS011;28923;45.412;10.852;2022-09-25T08:04:20;2.53;;;1.20;;
43327;SDS011;28923;45.412;10.852;2022-09-25T08:06:45;4.32;;;1.08;;
43327;SDS011;28923;45.412;10.852;2022-09-25T08:09:10;3.33;;;1.30;;
43327;SDS011;28923;45.412;10.852;2022-09-25T08:11:36;4.80;;;1.30;;
43327;SDS011;28923;45.412;10.852;2022-09-25T08:14:02;6.97;;;1.00;;
43327;SDS011;28923;45.412;10.852;2022-09-25T08:16:27;4.38;;;0.95;;
43327;SDS011;28923;45.412;10.852;2022-09-25T08:18:53;13.55;;;1.50;;
43327;SDS011;28923;45.412;10.852;2022-09-25T08:21:19;3.40;;;1.10;;
43327;SDS011;28923;45.412;10.852;2022-09-25T08:23:48;5.65;;;1.20;;
43327;SDS011;28923;45.412;10.852;2022-09-25T08:26:15;9.48;;;1.35;;
43327;SDS011;28923;45.412;10.852;2022-09-25T08:28:41;9.57;;;1.58;;
43327;SDS011;28923;45.412;10.852;2022-09-25T08:31:06;5.60;;;1.38;;
43327;SDS011;28923;45.412;10.852;2022-09-25T08:33:33;9.15;;;1.73;;
43327;SDS011;28923;45.412;10.852;2022-09-25T08:36:00;5.70;;;1.27;;
43327;SDS011;28923;45.412;10.852;2022-09-25T08:38:26;8.45;;;1.60;;
43327;SDS011;28923;45.412;10.852;2022-09-25T08:41:01;3.88;;;1.27;;
43327;SDS011;28923;45.412;10.852;2022-09-25T08:43:29;4.55;;;1.20;;
43327;SDS011;28923;45.412;10.852;2022-09-25T08:45:56;3.50;;;1.02;;
43327;SDS011;28923;45.412;10.852;2022-09-25T08:48:42;12.70;;;1.10;;
43327;SDS011;28923;45.412;10.852;2022-09-25T08:51:30;4.93;;;1.20;;
43327;SDS011;28923;45.412;10.852;2022-09-25T08:53:57;7.13;;;1.60;;
43327;SDS011;28923;45.412;10.852;2022-09-25T08:56:23;4.18;;;1.00;;
43327;SDS011;28923;45.412;10.852;2022-09-25T08:58:51;6.00;;;1.00;;
43327;SDS011;28923;45.412;10.852;2022-09-25T09:01:24;4.82;;;0.93;;
43327;SDS011;28923;45.412;10.852;2022-09-25T09:03:56;6.05;;;1.40;;
43327;SDS011;28923;45.412;10.852;2022-09-25T09:06:25;3.67;;;1.27;;
43327;SDS011;28923;45.412;10.852;2022-09-25T09:08:54;4.60;;;1.10;;
43327;SDS011;28923;45.412;10.852;2022-09-25T09:11:27;2.72;;;1.00;;
43327;SDS011;28923;45.412;10.852;2022-09-25T09:14:02;3.83;;;1.23;;
43327;SDS011;28923;45.412;10.852;2022-09-25T09:18:55;6.63;;;1.75;;
43327;SDS011;28923;45.412;10.852;2022-09-25T09:24:06;2.72;;;0.98;;
43327;SDS011;28923;45.412;10.852;2022-09-25T09:40:07;4.80;;;0.98;;
43327;SDS011;28923;45.412;10.852;2022-09-25T09:43:12;3.88;;;1.10;;
43327;SDS011;28923;45.412;10.852;2022-09-25T09:50:36;1.30;;;1.00;;
43327;SDS011;28923;45.412;10.852;2022-09-25T09:53:03;2.05;;;1.10;;
43327;SDS011;28923;45.412;10.852;2022-09-25T09:55:37;2.85;;;1.08;;
43327;SDS011;28923;45.412;10.852;2022-09-25T09:58:08;3.33;;;1.20;;
43327;SDS011;28923;45.412;10.852;2022-09-25T10:00:36;7.20;;;1.60;;
43327;SDS011;28923;45.412;10.852;2022-09-25T10:05:48;1.98;;;1.00;;
43327;SDS011;28923;45.412;10.852;2022-09-25T10:08:15;3.22;;;1.50;;
43327;SDS011;28923;45.412;10.852;2022-09-25T10:10:42;2.42;;;1.23;;
43327;SDS011;28923;45.412;10.852;2022-09-25T10:13:22;3.15;;;1.30;;
43327;SDS011;28923;45.412;10.852;2022-09-25T10:16:02;3.47;;;1.40;;
43327;SDS011;28923;45.412;10.852;2022-09-25T10:21:03;2.33;;;1.10;;
43327;SDS011;28923;45.412;10.852;2022-09-25T10:23:36;7.45;;;1.40;;
43327;SDS011;28923;45.412;10.852;2022-09-25T10:28:46;2.75;;;1.20;;
43327;SDS011;28923;45.412;10.852;2022-09-25T10:31:12;2.95;;;1.38;;
43327;SDS011;28923;45.412;10.852;2022-09-25T10:33:39;3.58;;;1.48;;
43327;SDS011;28923;45.412;10.852;2022-09-25T10:36:05;4.30;;;1.40;;
43327;SDS011;28923;45.412;10.852;2022-09-25T10:38:32;3.20;;;1.42;;
43327;SDS011;28923;45.412;10.852;2022-09-25T10:41:04;5.70;;;1.60;;
43327;SDS011;28923;45.412;10.852;2022-09-25T10:43:33;4.05;;;1.63;;
43327;SDS011;28923;45.412;10.852;2022-09-25T10:46:13;5.97;;;1.60;;
43327;SDS011;28923;45.412;10.852;2022-09-25T10:48:39;3.25;;;1.63;;
43327;SDS011;28923;45.412;10.852;2022-09-25T10:51:23;3.13;;;1.30;;
43327;SDS011;28923;45.412;10.852;2022-09-25T10:53:49;2.40;;;1.83;;
43327;SDS011;28923;45.412;10.852;2022-09-25T10:56:20;7.28;;;2.03;;
43327;SDS011;28923;45.412;10.852;2022-09-25T10:58:50;2.10;;;1.50;;
43327;SDS011;28923;45.412;10.852;2022-09-25T11:01:16;1.85;;;1.38;;
43327;SDS011;28923;45.412;10.852;2022-09-25T11:03:52;3.38;;;1.42;;
43327;SDS011;28923;45.412;10.852;2022-09-25T11:06:28;3.58;;;1.50;;
43327;SDS011;28923;45.412;10.852;2022-09-25T11:12:18;2.60;;;1.40;;
43327;SDS011;28923;45.412;10.852;2022-09-25T11:14:41;1.52;;;1.40;;
43327;SDS011;28923;45.412;10.852;2022-09-25T11:17:27;6.20;;;1.48;;
43327;SDS011;28923;45.412;10.852;2022-09-25T11:20:09;3.30;;;1.45;;
43327;SDS011;28923;45.412;10.852;2022-09-25T11:25:16;2.15;;;1.40;;
43327;SDS011;28923;45.412;10.852;2022-09-25T11:30:20;3.63;;;1.50;;
43327;SDS011;28923;45.412;10.852;2022-09-25T11:35:54;2.83;;;1.13;;
43327;SDS011;28923;45.412;10.852;2022-09-25T11:49:19;2.70;;;1.20;;
43327;SDS011;28923;45.412;10.852;2022-09-25T11:56:44;2.78;;;1.10;;
43327;SDS011;28923;45.412;10.852;2022-09-25T12:01:46;2.05;;;1.20;;
43327;SDS011;28923;45.412;10.852;2022-09-25T12:04:35;10.10;;;1.20;;
43327;SDS011;28923;45.412;10.852;2022-09-25T12:07:13;2.00;;;1.25;;
43327;SDS011;28923;45.412;10.852;2022-09-25T12:09:45;4.03;;;1.20;;
43327;SDS011;28923;45.412;10.852;2022-09-25T12:12:24;3.83;;;1.25;;
43327;SDS011;28923;45.412;10.852;2022-09-25T12:20:21;6.82;;;1.50;;
43327;SDS011;28923;45.412;10.852;2022-09-25T12:22:56;1.77;;;1.10;;
43327;SDS011;28923;45.412;10.852;2022-09-25T12:28:26;5.90;;;1.40;;
43327;SDS011;28923;45.412;10.852;2022-09-25T12:36:31;1.58;;;1.05;;
43327;SDS011;28923;45.412;10.852;2022-09-25T12:39:03;2.80;;;0.98;;
43327;SDS011;28923;45.412;10.852;2022-09-25T12:41:34;3.95;;;1.40;;
43327;SDS011;28923;45.412;10.852;2022-09-25T12:46:36;4.13;;;1.00;;
43327;SDS011;28923;45.412;10.852;2022-09-25T12:49:08;1.83;;;1.10;;
43327;SDS011;28923;45.412;10.852;2022-09-25T12:56:52;2.03;;;1.10;;
43327;SDS011;28923;45.412;10.852;2022-09-25T12:59:22;8.65;;;1.70;;
43327;SDS011;28923;45.412;10.852;2022-09-25T13:04:31;6.57;;;1.40;;
43327;SDS011;28923;45.412;10.852;2022-09-25T13:07:21;2.55;;;1.40;;
43327;SDS011;28923;45.412;10.852;2022-09-25T13:09:49;7.63;;;1.38;;
43327;SDS011;28923;45.412;10.852;2022-09-25T13:14:42;3.28;;;1.30;;
43327;SDS011;28923;45.412;10.852;2022-09-25T13:17:11;2.33;;;1.15;;
43327;SDS011;28923;45.412;10.852;2022-09-25T13:19:37;3.58;;;1.10;;
43327;SDS011;28923;45.412;10.852;2022-09-25T13:22:05;1.88;;;1.15;;
43327;SDS011;28923;45.412;10.852;2022-09-25T13:24:36;3.33;;;1.10;;
43327;SDS011;28923;45.412;10.852;2022-09-25T13:27:03;5.65;;;1.00;;
43327;SDS011;28923;45.412;10.852;2022-09-25T13:29:32;3.47;;;1.40;;
43327;SDS011;28923;45.412;10.852;2022-09-25T13:32:16;2.53;;;1.23;;
43327;SDS011;28923;45.412;10.852;2022-09-25T13:34:43;5.07;;;1.45;;
43327;SDS011;28923;45.412;10.852;2022-09-25T13:37:09;3.35;;;1.27;;
43327;SDS011;28923;45.412;10.852;2022-09-25T13:39:43;3.60;;;1.30;;
43327;SDS011;28923;45.412;10.852;2022-09-25T13:42:32;5.43;;;1.10;;
43327;SDS011;28923;45.412;10.852;2022-09-25T13:50:14;4.82;;;1.20;;
43327;SDS011;28923;45.412;10.852;2022-09-25T14:03:00;4.22;;;1.30;;
43327;SDS011;28923;45.412;10.852;2022-09-25T14:05:31;4.25;;;0.95;;
43327;SDS011;28923;45.412;10.852;2022-09-25T14:08:09;3.42;;;1.23;;
43327;SDS011;28923;45.412;10.852;2022-09-25T14:10:36;3.75;;;1.10;;
43327;SDS011;28923;45.412;10.852;2022-09-25T14:13:02;3.45;;;1.10;;
43327;SDS011;28923;45.412;10.852;2022-09-25T14:15:35;3.70;;;1.15;;
43327;SDS011;28923;45.412;10.852;2022-09-25T14:18:04;3.05;;;1.20;;
43327;SDS011;28923;45.412;10.852;2022-09-25T14:20:36;4.82;;;0.80;;
43327;SDS011;28923;45.412;10.852;2022-09-25T14:23:10;1.95;;;1.00;;
43327;SDS011;28923;45.412;10.852;2022-09-25T14:25:36;1.83;;;0.80;;
43327;SDS011;28923;45.412;10.852;2022-09-25T14:28:24;5.60;;;1.10;;
43327;SDS011;28923;45.412;10.852;2022-09-25T14:31:02;1.20;;;0.80;;
43327;SDS011;28923;45.412;10.852;2022-09-25T14:33:56;2.50;;;0.80;;
43327;SDS011;28923;45.412;10.852;2022-09-25T14:36:28;1.88;;;1.00;;
43327;SDS011;28923;45.412;10.852;2022-09-25T14:41:29;1.90;;;0.80;;
43327;SDS011;28923;45.412;10.852;2022-09-25T14:46:24;3.53;;;0.93;;
43327;SDS011;28923;45.412;10.852;2022-09-25T14:48:54;4.75;;;1.10;;
43327;SDS011;28923;45.412;10.852;2022-09-25T14:51:22;4.80;;;0.73;;
43327;SDS011;28923;45.412;10.852;2022-09-25T14:53:50;2.13;;;0.90;;
43327;SDS011;28923;45.412;10.852;2022-09-25T14:56:18;2.08;;;1.23;;
43327;SDS011;28923;45.412;10.852;2022-09-25T14:58:45;0.70;;;0.70;;
43327;SDS011;28923;45.412;10.852;2022-09-25T15:01:26;2.85;;;1.00;;
43327;SDS011;28923;45.412;10.852;2022-09-25T15:03:55;2.42;;;1.10;;
43327;SDS011;28923;45.412;10.852;2022-09-25T15:06:27;5.00;;;0.80;;
43327;SDS011;28923;45.412;10.852;2022-09-25T15:08:53;2.78;;;1.00;;
43327;SDS011;28923;45.412;10.852;2022-09-25T15:11:19;4.65;;;1.45;;
43327;SDS011;28923;45.412;10.852;2022-09-25T15:13:44;3.47;;;0.88;;
43327;SDS011;28923;45.412;10.852;2022-09-25T15:16:31;2.63;;;1.00;;
43327;SDS011;28923;45.412;10.852;2022-09-25T15:19:15;1.67;;;0.80;;
43327;SDS011;28923;45.412;10.852;2022-09-25T15:21:44;1.83;;;0.90;;
43327;SDS011;28923;45.412;10.852;2022-09-25T15:24:12;2.63;;;0.98;;
43327;SDS011;28923;45.412;10.852;2022-09-25T15:26:40;2.83;;;0.80;;
43327;SDS011;28923;45.412;10.852;2022-09-25T15:29:13;4.22;;;1.08;;
43327;SDS011;28923;45.412;10.852;2022-09-25T15:31:43;4.90;;;1.20;;
43327;SDS011;28923;45.412;10.852;2022-09-25T15:34:18;5.68;;;1.20;;
43327;SDS011;28923;45.412;10.852;2022-09-25T15:36:44;2.58;;;1.20;;
43327;SDS011;28923;45.412;10.852;2022-09-25T15:39:12;2.88;;;0.85;;
43327;SDS011;28923;45.412;10.852;2022-09-25T15:41:40;5.05;;;0.93;;
43327;SDS011;28923;45.412;10.852;2022-09-25T15:44:19;2.92;;;0.70;;
43327;SDS011;28923;45.412;10.852;2022-09-25T15:46:47;4.05;;;0.90;;
43327;SDS011;28923;45.412;10.852;2022-09-25T15:49:14;6.53;;;1.73;;
43327;SDS011;28923;45.412;10.852;2022-09-25T15:51:43;3.13;;;0.80;;
43327;SDS011;28923;45.412;10.852;2022-09-25T15:56:44;3.63;;;0.93;;
43327;SDS011;28923;45.412;10.852;2022-09-25T15:59:33;2.45;;;0.93;;
43327;SDS011;28923;45.412;10.852;2022-09-25T16:01:58;4.85;;;1.27;;
43327;SDS011;28923;45.412;10.852;2022-09-25T16:04:46;5.65;;;0.77;;
43327;SDS011;28923;45.412;10.852;2022-09-25T16:09:47;15.68;;;1.67;;
43327;SDS011;28923;45.412;10.852;2022-09-25T16:12:19;4.82;;;0.80;;
43327;SDS011;28923;45.412;10.852;2022-09-25T16:14:46;3.05;;;0.70;;
43327;SDS011;28923;45.412;10.852;2022-09-25T16:22:49;17.52;;;2.45;;
43327;SDS011;28923;45.412;10.852;2022-09-25T16:25:57;13.73;;;2.60;;
43327;SDS011;28923;45.412;10.852;2022-09-25T16:28:04;14.52;;;3.85;;
43327;SDS011;28923;45.412;10.852;2022-09-25T16:30:30;16.13;;;3.75;;
43327;SDS011;28923;45.412;10.852;2022-09-25T16:32:57;15.50;;;3.97;;
43327;SDS011;28923;45.412;10.852;2022-09-25T16:37:59;21.23;;;3.40;;
43327;SDS011;28923;45.412;10.852;2022-09-25T16:40:26;12.65;;;3.13;;
43327;SDS011;28923;45.412;10.852;2022-09-25T16:42:56;14.60;;;3.50;;
43327;SDS011;28923;45.412;10.852;2022-09-25T16:47:54;12.15;;;2.78;;
43327;SDS011;28923;45.412;10.852;2022-09-25T16:50:22;16.17;;;3.30;;
43327;SDS011;28923;45.412;10.852;2022-09-25T16:52:49;10.00;;;2.65;;
43327;SDS011;28923;45.412;10.852;2022-09-25T16:55:22;8.43;;;2.50;;
43327;SDS011;28923;45.412;10.852;2022-09-25T16:57:50;12.65;;;2.70;;
43327;SDS011;28923;45.412;10.852;2022-09-25T17:00:17;9.13;;;2.35;;
43327;SDS011;28923;45.412;10.852;2022-09-25T17:02:44;9.60;;;2.92;;
43327;SDS011;28923;45.412;10.852;2022-09-25T17:05:11;9.30;;;2.53;;
43327;SDS011;28923;45.412;10.852;2022-09-25T17:07:42;6.53;;;2.33;;
43327;SDS011;28923;45.412;10.852;2022-09-25T17:10:10;8.60;;;2.33;;
43327;SDS011;28923;45.412;10.852;2022-09-25T17:12:35;10.60;;;2.45;;
43327;SDS011;28923;45.412;10.852;2022-09-25T17:15:01;6.60;;;1.95;;
43327;SDS011;28923;45.412;10.852;2022-09-25T17:17:27;4.15;;;1.92;;
43327;SDS011;28923;45.412;10.852;2022-09-25T17:19:54;6.65;;;1.40;;
43327;SDS011;28923;45.412;10.852;2022-09-25T17:22:19;5.93;;;1.85;;
43327;SDS011;28923;45.412;10.852;2022-09-25T17:24:46;5.72;;;2.03;;
43327;SDS011;28923;45.412;10.852;2022-09-25T17:27:13;5.85;;;1.42;;